Terminal Aerodrome Forecast
Issued by NWS Dodge City, KS

Home | Current Version | Previous Version | Text Only | Print | Product List | Glossary On
Versions: 1 2 3 4 5 6 7 8 9 10 11 12 13 14 15 16 17 18 19 20 21 22 23 24 25 26 27 28 29 30 31 32 33 34 35 36 37 38 39 40 41 42
837
FTUS43 KDDC 261648 AAB
TAFDDC
TAF AMD
KDDC 261648Z 2617/2712 25015G24KT P6SM VCSH BKN090
     FM262000 35011KT P6SM VCTS BKN090CB
     FM270400 34009KT P6SM BKN090
     FM270900 01009KT P6SM BKN007=

USA.gov is the U.S. government's official web portal to all federal, state and local government web resources and services.